Time;durP1;ratioP1;P1;durP2;ratioP2;P2;SDS_P1;SDS_P2;PMS_P1;PMS_P2;Temp;Humidity;BMP_temperature;BMP_pressure;BME280_temperature;BME280_humidity;BME280_pressure;Samples;Min_cycle;Max_cycle;Signal;HPM_P1;HPM_P2
2022/07/29 00:01:52;;;;;;;;;;;537.60;2406.40;;;;;;5110782;28;19965;-61
2022/07/29 00:04:18;;;;;;;;;;;537.70;2406.40;;;;;;5110706;28;19967;-62
2022/07/29 00:06:43;;;;;;;;;;;537.90;2406.40;;;;;;5111043;28;19961;-61
2022/07/29 00:09:09;;;;;;;;;;;537.70;2406.40;;;;;;5111021;28;19937;-61
2022/07/29 00:11:34;;;;;;;;;;;537.60;2406.40;;;;;;5110775;28;19916;-61
2022/07/29 00:14:00;;;;;;;;;;;537.60;2406.40;;;;;;5110716;28;19918;-61
2022/07/29 00:16:26;;;;;;;;;;;537.60;2406.40;;;;;;5110868;28;19912;-61
2022/07/29 00:18:51;;;;;;;;;;;537.60;2406.40;;;;;;5113681;28;19955;-62
2022/07/29 00:21:17;;;;;;;;;;;512.90;2380.80;;;;;;5114621;28;20395;-61
2022/07/29 00:23:42;;;;;;;;;;;512.80;2380.80;;;;;;5114702;28;19916;-61
2022/07/29 00:26:08;;;;;;;;;;;512.90;2380.80;;;;;;5114744;28;19937;-61
2022/07/29 00:28:33;;;;;;;;;;;512.80;2380.80;;;;;;5114762;28;20243;-61
2022/07/29 00:31:00;;;;;;;;;;;512.90;2380.80;;;;;;5114407;28;19912;-61
2022/07/29 00:33:25;;;;;;;;;;;512.80;2380.80;;;;;;5114786;28;19912;-61
2022/07/29 00:35:51;;;;;;;;;;;512.80;2380.80;;;;;;5114281;28;19915;-61
2022/07/29 00:38:19;;;;;;;;;;;512.80;2380.80;;;;;;5114302;28;20003;-62
2022/07/29 00:40:45;;;;;;;;;;;512.70;2380.80;;;;;;5114416;28;19912;-61
2022/07/29 00:43:12;;;;;;;;;;;512.70;2380.80;;;;;;5114006;28;19920;-61
2022/07/29 00:45:37;;;;;;;;;;;512.70;2380.80;;;;;;5114079;28;19908;-62
2022/07/29 00:48:04;;;;;;;;;;;512.70;2380.80;;;;;;5114216;28;19915;-61
2022/07/29 00:50:30;;;;;;;;;;;512.70;2380.80;;;;;;5113966;28;20012;-61
2022/07/29 00:52:56;;;;;;;;;;;512.60;2380.80;;;;;;5114061;28;20281;-61
2022/07/29 00:55:22;;;;;;;;;;;512.60;2380.80;;;;;;5114003;28;19908;-61
2022/07/29 00:57:48;;;;;;;;;;;512.70;2380.80;;;;;;5113787;28;19907;-62
2022/07/29 01:00:21;;;;;;;;;;;512.60;2380.80;;;;;;5113849;28;19908;-62
2022/07/29 01:02:50;;;;;;;;;;;512.50;2380.80;;;;;;5114091;28;20751;-61
2022/07/29 01:05:20;;;;;;;;;;;512.30;2380.80;;;;;;5113911;28;20010;-61
2022/07/29 01:07:46;;;;;;;;;;;512.30;2380.80;;;;;;5113886;28;19912;-61
2022/07/29 01:10:13;;;;;;;;;;;512.30;2380.80;;;;;;5113405;28;19930;-61
2022/07/29 01:12:38;;;;;;;;;;;512.30;2380.80;;;;;;5113540;28;19912;-63
2022/07/29 01:15:06;;;;;;;;;;;512.20;2380.80;;;;;;5113671;28;19930;-61
2022/07/29 01:17:41;;;;;;;;;;;512.20;2380.80;;;;;;5113244;28;19908;-62
2022/07/29 01:20:19;;;;;;;;;;;512.10;2380.80;;;;;;5113745;28;19960;-61
2022/07/29 01:22:45;;;;;;;;;;;512.00;2380.80;;;;;;5113474;28;20007;-61
2022/07/29 01:25:11;;;;;;;;;;;487.30;2380.80;;;;;;5113285;28;20010;-61
2022/07/29 01:27:44;;;;;;;;;;;512.10;2380.80;;;;;;5113787;28;19915;-61
2022/07/29 01:30:10;;;;;;;;;;;512.00;2380.80;;;;;;5112490;28;19912;-61
2022/07/29 01:32:36;;;;;;;;;;;487.30;2380.80;;;;;;5113330;28;19914;-61
2022/07/29 01:35:08;;;;;;;;;;;512.00;2380.80;;;;;;5113269;28;19908;-61
2022/07/29 01:37:52;;;;;;;;;;;512.00;2380.80;;;;;;5113349;28;19915;-61
2022/07/29 01:40:27;;;;;;;;;;;512.10;2380.80;;;;;;5113027;28;19908;-61
2022/07/29 01:42:54;;;;;;;;;;;512.20;2380.80;;;;;;5113114;28;19951;-61
2022/07/29 01:45:23;;;;;;;;;;;512.10;2380.80;;;;;;5112985;28;19994;-55
2022/07/29 01:47:48;;;;;;;;;;;512.10;2380.80;;;;;;5113050;28;19915;-54
2022/07/29 01:50:15;;;;;;;;;;;512.10;2380.80;;;;;;5121378;27;20276;-53
2022/07/29 01:52:53;;;;;;;;;;;487.30;2380.80;;;;;;5132763;27;19908;-53
2022/07/29 01:55:21;;;;;;;;;;;512.10;2380.80;;;;;;5132216;27;19912;-54
2022/07/29 01:57:48;;;;;;;;;;;512.10;2380.80;;;;;;5132779;27;19939;-54
2022/07/29 02:00:15;;;;;;;;;;;512.20;2380.80;;;;;;5128945;27;19911;-56
2022/07/29 02:02:42;;;;;;;;;;;512.20;2380.80;;;;;;5127000;27;20422;-54
2022/07/29 02:05:09;;;;;;;;;;;512.10;2380.80;;;;;;5132039;27;19941;-56
2022/07/29 02:07:36;;;;;;;;;;;512.10;2380.80;;;;;;5119704;27;20007;-56
2022/07/29 02:10:02;;;;;;;;;;;512.00;2380.80;;;;;;5132109;27;19923;-56
2022/07/29 02:12:29;;;;;;;;;;;487.30;2380.80;;;;;;5131922;27;19957;-54
2022/07/29 02:14:56;;;;;;;;;;;487.30;2380.80;;;;;;5130799;27;19912;-56
2022/07/29 02:17:23;;;;;;;;;;;487.30;2380.80;;;;;;5112390;28;19958;-55
2022/07/29 02:19:49;;;;;;;;;;;487.30;2380.80;;;;;;5112260;28;19908;-54
2022/07/29 02:22:16;;;;;;;;;;;487.30;2380.80;;;;;;5112551;28;19908;-56
2022/07/29 02:24:42;;;;;;;;;;;487.30;2380.80;;;;;;5112145;28;19976;-56
2022/07/29 02:27:08;;;;;;;;;;;487.30;2380.80;;;;;;5112086;28;19908;-55
2022/07/29 02:29:34;;;;;;;;;;;487.20;2380.80;;;;;;5112233;28;19908;-56
2022/07/29 02:32:00;;;;;;;;;;;487.20;2380.80;;;;;;5112129;28;19982;-56
2022/07/29 02:34:26;;;;;;;;;;;487.20;2380.80;;;;;;5112231;28;19919;-54
2022/07/29 02:36:53;;;;;;;;;;;487.10;2380.80;;;;;;5112105;28;19908;-56
2022/07/29 02:39:20;;;;;;;;;;;487.10;2380.80;;;;;;5112022;28;20262;-55
2022/07/29 02:41:49;;;;;;;;;;;487.10;2380.80;;;;;;5111711;28;19916;-56
2022/07/29 02:44:16;;;;;;;;;;;487.00;2380.80;;;;;;5111855;28;20015;-52
2022/07/29 02:47:00;;;;;;;;;;;487.10;2380.80;;;;;;5111770;28;20350;-52
2022/07/29 02:49:32;;;;;;;;;;;487.10;2380.80;;;;;;5112110;28;19912;-53
2022/07/29 02:51:59;;;;;;;;;;;487.10;2380.80;;;;;;5111618;28;19970;-53
2022/07/29 02:54:39;;;;;;;;;;;487.10;2380.80;;;;;;5111784;28;19914;-53
2022/07/29 02:57:09;;;;;;;;;;;487.10;2380.80;;;;;;5111720;28;19930;-53
2022/07/29 02:59:36;;;;;;;;;;;487.00;2380.80;;;;;;5111915;28;19933;-55
2022/07/29 03:02:02;;;;;;;;;;;487.10;2380.80;;;;;;5111653;28;19919;-54
2022/07/29 03:04:29;;;;;;;;;;;487.10;2380.80;;;;;;5111464;28;19915;-55
2022/07/29 03:06:56;;;;;;;;;;;487.10;2380.80;;;;;;5111959;28;19930;-56
2022/07/29 03:09:22;;;;;;;;;;;487.10;2380.80;;;;;;5111516;28;19943;-57
2022/07/29 03:11:49;;;;;;;;;;;487.10;2380.80;;;;;;5111340;28;20353;-53
2022/07/29 03:14:16;;;;;;;;;;;487.00;2380.80;;;;;;5111622;28;20002;-54
2022/07/29 03:16:41;;;;;;;;;;;487.00;2380.80;;;;;;5111460;28;19908;-57
2022/07/29 03:19:07;;;;;;;;;;;487.00;2380.80;;;;;;5111782;28;19908;-56
2022/07/29 03:21:33;;;;;;;;;;;487.00;2380.80;;;;;;5111581;28;20349;-56
2022/07/29 03:23:59;;;;;;;;;;;487.10;2380.80;;;;;;5111316;28;19916;-55
2022/07/29 03:26:25;;;;;;;;;;;487.10;2380.80;;;;;;5111454;28;20268;-54
2022/07/29 03:28:50;;;;;;;;;;;487.00;2380.80;;;;;;5111459;28;19981;-55
2022/07/29 03:31:16;;;;;;;;;;;487.00;2380.80;;;;;;5111441;28;20364;-56
2022/07/29 03:33:41;;;;;;;;;;;487.10;2380.80;;;;;;5111335;28;19961;-55
2022/07/29 03:36:07;;;;;;;;;;;487.10;2380.80;;;;;;5111291;28;19915;-56
2022/07/29 03:38:35;;;;;;;;;;;487.00;2380.80;;;;;;5111305;28;19914;-56
2022/07/29 03:41:03;;;;;;;;;;;487.00;2380.80;;;;;;5110856;28;19912;-55
2022/07/29 03:43:34;;;;;;;;;;;487.00;2380.80;;;;;;5111360;28;19945;-56
2022/07/29 03:46:00;;;;;;;;;;;487.20;2380.80;;;;;;5111228;28;19907;-54
2022/07/29 03:48:26;;;;;;;;;;;487.20;2380.80;;;;;;5111417;28;19919;-55
2022/07/29 03:50:52;;;;;;;;;;;487.30;2380.80;;;;;;5111182;28;19908;-56
2022/07/29 03:53:17;;;;;;;;;;;512.10;2380.80;;;;;;5113058;28;20268;-54
2022/07/29 03:55:45;;;;;;;;;;;512.10;2380.80;;;;;;5115420;28;19973;-56
2022/07/29 03:58:12;;;;;;;;;;;512.10;2380.80;;;;;;5096339;28;19911;-54
2022/07/29 04:00:38;;;;;;;;;;;512.20;2380.80;;;;;;5115007;28;20417;-53
2022/07/29 04:03:04;;;;;;;;;;;512.30;2380.80;;;;;;5115116;28;19908;-56
2022/07/29 04:05:30;;;;;;;;;;;512.30;2380.80;;;;;;5115032;28;19911;-54
2022/07/29 04:07:55;;;;;;;;;;;512.20;2380.80;;;;;;5115102;28;19908;-54
2022/07/29 04:10:22;;;;;;;;;;;512.30;2380.80;;;;;;5114654;28;19961;-57
2022/07/29 04:12:48;;;;;;;;;;;512.50;2380.80;;;;;;5114994;28;20319;-54
2022/07/29 04:15:14;;;;;;;;;;;512.60;2380.80;;;;;;5114952;28;19964;-56
2022/07/29 04:17:40;;;;;;;;;;;512.70;2380.80;;;;;;5114708;28;19912;-56
2022/07/29 04:20:05;;;;;;;;;;;512.70;2380.80;;;;;;5114847;28;20290;-56
2022/07/29 04:22:31;;;;;;;;;;;512.70;2380.80;;;;;;5114699;28;19915;-54
2022/07/29 04:24:57;;;;;;;;;;;512.90;2380.80;;;;;;5114514;28;20014;-56
2022/07/29 04:27:22;;;;;;;;;;;512.90;2380.80;;;;;;5114587;28;19907;-56
2022/07/29 04:29:48;;;;;;;;;;;512.90;2380.80;;;;;;5114440;28;19915;-54
2022/07/29 04:32:13;;;;;;;;;;;512.90;2380.80;;;;;;5114665;28;19914;-56
2022/07/29 04:34:39;;;;;;;;;;;537.70;2406.40;;;;;;5114327;28;19908;-56
2022/07/29 04:37:04;;;;;;;;;;;537.90;2406.40;;;;;;5114591;28;19908;-54
2022/07/29 04:39:30;;;;;;;;;;;537.90;2406.40;;;;;;5115056;27;19911;-54
2022/07/29 04:41:55;;;;;;;;;;;537.90;2406.40;;;;;;5133937;27;19911;-57
2022/07/29 04:44:21;;;;;;;;;;;537.90;2406.40;;;;;;5134166;27;20020;-54
2022/07/29 04:46:47;;;;;;;;;;;538.00;2406.40;;;;;;5133973;27;20319;-55
2022/07/29 04:49:12;;;;;;;;;;;538.00;2406.40;;;;;;5134551;27;19911;-57
2022/07/29 04:51:38;;;;;;;;;;;538.30;2406.40;;;;;;5134771;27;19914;-54
2022/07/29 04:54:04;;;;;;;;;;;538.50;2406.40;;;;;;5134888;27;19907;-56
2022/07/29 04:56:29;;;;;;;;;;;563.40;2432.00;;;;;;5134435;27;19919;-54
2022/07/29 04:58:55;;;;;;;;;;;640.50;2432.00;;;;;;5134705;27;19907;-57
2022/07/29 05:01:20;;;;;;;;;;;717.10;1996.80;;;;;;5134386;27;19965;-55
2022/07/29 05:03:46;;;;;;;;;;;743.30;1792.00;;;;;;5133867;27;20014;-57
2022/07/29 05:06:12;;;;;;;;;;;793.70;1689.60;;;;;;5133771;27;19973;-54
2022/07/29 05:08:37;;;;;;;;;;;820.00;1536.00;;;;;;5134344;27;19908;-55
2022/07/29 05:11:03;;;;;;;;;;;844.90;1510.40;;;;;;5134078;27;19912;-58
2022/07/29 05:13:29;;;;;;;;;;;845.00;1510.40;;;;;;5133986;27;20020;-57
2022/07/29 05:15:54;;;;;;;;;;;870.70;1433.60;;;;;;5134592;27;19914;-56
2022/07/29 05:18:20;;;;;;;;;;;871.30;1382.40;;;;;;5134214;27;19912;-57
2022/07/29 05:20:46;;;;;;;;;;;921.70;1331.20;;;;;;5134238;27;19907;-56
2022/07/29 05:23:14;;;;;;;;;;;922.20;1305.60;;;;;;5134019;27;20010;-58
2022/07/29 05:25:40;;;;;;;;;;;922.00;1305.60;;;;;;5133926;27;20009;-58
2022/07/29 05:28:05;;;;;;;;;;;947.40;1280.00;;;;;;5134097;27;19943;-54
2022/07/29 05:30:31;;;;;;;;;;;948.00;1228.80;;;;;;5134005;27;20334;-58
2022/07/29 05:32:56;;;;;;;;;;;973.20;1228.80;;;;;;5134064;27;19907;-57
2022/07/29 05:35:22;;;;;;;;;;;973.30;1228.80;;;;;;5134192;27;19952;-55
2022/07/29 05:37:48;;;;;;;;;;;973.70;1177.60;;;;;;5133679;27;20007;-58
2022/07/29 05:40:13;;;;;;;;;;;998.80;1177.60;;;;;;5132833;27;19912;-59
2022/07/29 05:42:39;;;;;;;;;;;1024.30;1126.40;;;;;;5132650;27;19938;-59
2022/07/29 05:45:05;;;;;;;;;;;1024.30;1126.40;;;;;;5133458;27;19915;-56
2022/07/29 05:47:30;;;;;;;;;;;1024.90;1100.80;;;;;;5114205;27;19915;-57
2022/07/29 05:49:58;;;;;;;;;;;1024.70;1100.80;;;;;;5130305;27;19908;-59
2022/07/29 05:52:24;;;;;;;;;;;1024.70;1100.80;;;;;;5128671;27;19911;-56
2022/07/29 05:54:49;;;;;;;;;;;1050.20;1100.80;;;;;;5132636;27;20413;-55
2022/07/29 05:57:19;;;;;;;;;;;1050.30;1100.80;;;;;;5132639;27;19973;-57
2022/07/29 05:59:45;;;;;;;;;;;1075.70;1024.00;;;;;;5132974;27;19907;-57
2022/07/29 06:02:11;;;;;;;;;;;1100.80;1049.60;;;;;;5126909;27;20281;-55
2022/07/29 06:04:36;;;;;;;;;;;1075.70;1049.60;;;;;;5111354;28;19928;-57
2022/07/29 06:07:02;;;;;;;;;;;1101.00;1049.60;;;;;;5111586;28;19959;-57
2022/07/29 06:09:28;;;;;;;;;;;1126.40;1024.00;;;;;;5111186;28;19908;-56
2022/07/29 06:11:54;;;;;;;;;;;1126.80;1024.00;;;;;;5111213;28;20331;-55
2022/07/29 06:14:20;;;;;;;;;;;1126.70;1024.00;;;;;;5110924;28;19974;-59
2022/07/29 06:16:45;;;;;;;;;;;1126.90;1024.00;;;;;;5108396;28;19908;-56
2022/07/29 06:19:11;;;;;;;;;;;1152.20;972.80;;;;;;5110476;28;19965;-60
2022/07/29 06:21:41;;;;;;;;;;;1177.70;947.20;;;;;;5110462;28;20591;-60
2022/07/29 06:24:06;;;;;;;;;;;1178.10;921.60;;;;;;5110412;28;19919;-60
2022/07/29 06:26:33;;;;;;;;;;;1178.50;896.00;;;;;;5110273;28;19912;-60
2022/07/29 06:28:58;;;;;;;;;;;1178.10;896.00;;;;;;5110417;28;19957;-56
2022/07/29 06:31:24;;;;;;;;;;;1203.20;921.60;;;;;;5112532;28;20277;-59
2022/07/29 06:33:50;;;;;;;;;;;1178.50;870.40;;;;;;5111976;28;19920;-60
2022/07/29 06:36:15;;;;;;;;;;;1178.20;870.40;;;;;;5112283;28;19915;-57
2022/07/29 06:38:41;;;;;;;;;;;1126.90;947.20;;;;;;5112111;28;19953;-59
2022/07/29 06:41:09;;;;;;;;;;;1152.20;947.20;;;;;;5112150;28;20349;-60
2022/07/29 06:43:37;;;;;;;;;;;1178.00;896.00;;;;;;5111964;28;19916;-59
2022/07/29 06:46:07;;;;;;;;;;;1126.70;947.20;;;;;;5112312;28;19919;-59
2022/07/29 06:48:33;;;;;;;;;;;1126.90;947.20;;;;;;5114865;27;20544;-59
2022/07/29 06:50:59;;;;;;;;;;;1152.70;896.00;;;;;;5127063;27;19946;-56
2022/07/29 06:53:25;;;;;;;;;;;1152.60;921.60;;;;;;5131828;27;20400;-54
2022/07/29 06:55:50;;;;;;;;;;;1178.00;870.40;;;;;;5131695;27;19918;-59
2022/07/29 06:58:17;;;;;;;;;;;1203.40;870.40;;;;;;5131643;27;19951;-55
2022/07/29 07:00:44;;;;;;;;;;;1229.20;844.80;;;;;;5131847;27;19924;-54
2022/07/29 07:03:09;;;;;;;;;;;1228.90;844.80;;;;;;5127274;27;19958;-55
2022/07/29 07:05:37;;;;;;;;;;;1203.70;844.80;;;;;;5128816;27;20264;-58
2022/07/29 07:08:03;;;;;;;;;;;1204.10;844.80;;;;;;5129854;27;20037;-60
2022/07/29 07:10:29;;;;;;;;;;;1228.80;844.80;;;;;;5129292;27;20376;-56
2022/07/29 07:12:54;;;;;;;;;;;1229.50;819.20;;;;;;5129453;27;19969;-58
2022/07/29 07:15:21;;;;;;;;;;;1228.90;844.80;;;;;;5129118;27;19994;-61
2022/07/29 07:17:50;;;;;;;;;;;1203.80;844.80;;;;;;5129524;27;19951;-55
2022/07/29 07:20:16;;;;;;;;;;;1229.20;819.20;;;;;;5129510;27;19926;-56
2022/07/29 07:22:41;;;;;;;;;;;1203.80;819.20;;;;;;5129287;27;19987;-59
2022/07/29 07:25:07;;;;;;;;;;;1203.30;870.40;;;;;;5129397;27;20034;-56
2022/07/29 07:27:33;;;;;;;;;;;1229.20;844.80;;;;;;5122339;27;19912;-57
2022/07/29 07:29:58;;;;;;;;;;;1229.70;819.20;;;;;;5109385;28;19938;-56
2022/07/29 07:32:24;;;;;;;;;;;1229.50;793.60;;;;;;5108706;28;19971;-55
2022/07/29 07:34:49;;;;;;;;;;;1203.60;819.20;;;;;;5108511;28;19908;-60
2022/07/29 07:37:15;;;;;;;;;;;1229.20;819.20;;;;;;5108885;28;20487;-55
2022/07/29 07:39:41;;;;;;;;;;;1228.90;819.20;;;;;;5105621;28;19915;-55
2022/07/29 07:42:06;;;;;;;;;;;1203.40;844.80;;;;;;5108551;28;19912;-55
2022/07/29 07:44:32;;;;;;;;;;;1228.90;819.20;;;;;;5109942;28;19919;-60
2022/07/29 07:46:58;;;;;;;;;;;1204.10;819.20;;;;;;5110185;28;20373;-57
2022/07/29 07:49:23;;;;;;;;;;;1203.40;819.20;;;;;;5110479;28;19907;-58
2022/07/29 07:51:49;;;;;;;;;;;1229.30;819.20;;;;;;5110275;28;19908;-54
2022/07/29 07:54:15;;;;;;;;;;;1203.60;819.20;;;;;;5110359;28;20384;-55
2022/07/29 07:56:40;;;;;;;;;;;1178.30;844.80;;;;;;5110025;28;19912;-56
2022/07/29 07:59:06;;;;;;;;;;;1178.30;819.20;;;;;;5110831;28;20274;-55
2022/07/29 08:01:31;;;;;;;;;;;1229.30;819.20;;;;;;5110785;28;19923;-57
2022/07/29 08:03:57;;;;;;;;;;;1152.50;896.00;;;;;;5111320;28;19919;-58
2022/07/29 08:06:24;;;;;;;;;;;1177.80;844.80;;;;;;5111122;28;19955;-60
2022/07/29 08:08:50;;;;;;;;;;;1203.90;819.20;;;;;;5110867;28;19943;-60
2022/07/29 08:11:16;;;;;;;;;;;1229.40;819.20;;;;;;5111024;28;19954;-56
2022/07/29 08:13:42;;;;;;;;;;;1229.30;819.20;;;;;;5110644;28;19930;-57
2022/07/29 08:16:11;;;;;;;;;;;1203.70;819.20;;;;;;5110668;28;20305;-57
2022/07/29 08:18:38;;;;;;;;;;;1203.60;819.20;;;;;;5111239;28;19912;-57
2022/07/29 08:21:04;;;;;;;;;;;1228.80;819.20;;;;;;5110840;28;20345;-57
2022/07/29 08:23:38;;;;;;;;;;;1229.00;819.20;;;;;;5110771;28;19912;-57
2022/07/29 08:26:10;;;;;;;;;;;1178.20;819.20;;;;;;5110879;28;19908;-60
2022/07/29 08:28:37;;;;;;;;;;;1203.30;819.20;;;;;;5110777;28;19915;-56
2022/07/29 08:31:02;;;;;;;;;;;1152.60;844.80;;;;;;5110994;28;19908;-55
2022/07/29 08:33:28;;;;;;;;;;;1101.60;896.00;;;;;;5110906;28;19931;-59
2022/07/29 08:35:53;;;;;;;;;;;1024.50;972.80;;;;;;5110698;28;19960;-56
2022/07/29 08:38:19;;;;;;;;;;;998.80;1024.00;;;;;;5111038;28;19908;-55
2022/07/29 08:40:45;;;;;;;;;;;948.10;1024.00;;;;;;5114473;28;19907;-55
2022/07/29 08:43:11;;;;;;;;;;;947.30;1075.20;;;;;;5114193;28;19923;-55
2022/07/29 08:45:43;;;;;;;;;;;947.50;1049.60;;;;;;5114533;28;20380;-56
2022/07/29 08:48:08;;;;;;;;;;;947.80;1075.20;;;;;;5114286;28;19924;-56
2022/07/29 08:50:35;;;;;;;;;;;922.40;1100.80;;;;;;5114438;28;19908;-55
2022/07/29 08:53:01;;;;;;;;;;;922.30;1100.80;;;;;;5114054;28;19998;-58
2022/07/29 08:55:27;;;;;;;;;;;922.30;1075.20;;;;;;5114287;28;19962;-55
2022/07/29 08:57:53;;;;;;;;;;;921.70;1100.80;;;;;;5113915;28;19973;-55
2022/07/29 09:00:18;;;;;;;;;;;896.70;1100.80;;;;;;5113709;28;19962;-56
2022/07/29 09:02:45;;;;;;;;;;;921.80;1126.40;;;;;;5114119;28;19955;-55
2022/07/29 09:05:10;;;;;;;;;;;921.90;1100.80;;;;;;5113891;28;19920;-58
2022/07/29 09:07:38;;;;;;;;;;;921.60;1126.40;;;;;;5113939;28;19953;-57
2022/07/29 09:10:04;;;;;;;;;;;921.60;1126.40;;;;;;5113995;28;19908;-56
2022/07/29 09:12:30;;;;;;;;;;;922.20;1126.40;;;;;;5113456;28;19915;-56
2022/07/29 09:14:55;;;;;;;;;;;896.30;1126.40;;;;;;5113824;28;20010;-58
2022/07/29 09:17:40;;;;;;;;;;;921.60;1126.40;;;;;;5113611;28;19915;-58
2022/07/29 09:20:13;;;;;;;;;;;896.60;1126.40;;;;;;5113899;28;19915;-55
2022/07/29 09:22:39;;;;;;;;;;;871.30;1177.60;;;;;;5113452;28;19908;-55
2022/07/29 09:25:05;;;;;;;;;;;896.10;1152.00;;;;;;5113650;28;19916;-58
2022/07/29 09:27:31;;;;;;;;;;;896.40;1152.00;;;;;;5113306;28;19919;-55
2022/07/29 09:29:57;;;;;;;;;;;896.30;1177.60;;;;;;5113525;28;19953;-55
2022/07/29 09:32:23;;;;;;;;;;;871.10;1203.20;;;;;;5113726;28;19908;-58
2022/07/29 09:34:49;;;;;;;;;;;871.30;1203.20;;;;;;5113225;28;20305;-55
2022/07/29 09:37:28;;;;;;;;;;;871.10;1203.20;;;;;;5113446;28;20273;-58
2022/07/29 09:39:53;;;;;;;;;;;896.00;1177.60;;;;;;5113291;28;20283;-55
2022/07/29 09:42:29;;;;;;;;;;;871.10;1203.20;;;;;;5112853;28;19908;-55
2022/07/29 09:44:55;;;;;;;;;;;871.30;1203.20;;;;;;5113046;28;19949;-55
2022/07/29 09:47:23;;;;;;;;;;;871.00;1203.20;;;;;;5113391;28;19912;-60
2022/07/29 09:49:59;;;;;;;;;;;870.90;1203.20;;;;;;5112583;28;19991;-56
2022/07/29 09:52:28;;;;;;;;;;;870.60;1228.80;;;;;;5112846;28;19908;-58
2022/07/29 09:55:03;;;;;;;;;;;845.70;1254.40;;;;;;5113274;28;19912;-56
2022/07/29 09:57:29;;;;;;;;;;;871.10;1228.80;;;;;;5112735;28;19915;-58
2022/07/29 09:59:59;;;;;;;;;;;870.80;1228.80;;;;;;5113050;28;20314;-56
2022/07/29 10:02:29;;;;;;;;;;;871.20;1203.20;;;;;;5112821;28;19927;-58
2022/07/29 10:04:55;;;;;;;;;;;870.90;1228.80;;;;;;5112762;28;19915;-55
2022/07/29 10:07:20;;;;;;;;;;;870.60;1254.40;;;;;;5112481;28;19960;-58
2022/07/29 10:09:54;;;;;;;;;;;870.60;1254.40;;;;;;5112751;28;19960;-57
2022/07/29 10:12:20;;;;;;;;;;;845.50;1254.40;;;;;;5110069;28;19915;-57
2022/07/29 10:14:45;;;;;;;;;;;845.60;1254.40;;;;;;5110782;28;19919;-59
2022/07/29 10:17:11;;;;;;;;;;;870.50;1254.40;;;;;;5110400;28;20400;-57
2022/07/29 10:19:37;;;;;;;;;;;870.70;1228.80;;;;;;5110537;28;19947;-55
2022/07/29 10:22:06;;;;;;;;;;;870.80;1228.80;;;;;;5110375;28;19992;-56
2022/07/29 10:24:32;;;;;;;;;;;871.10;1203.20;;;;;;5109602;28;19919;-57
2022/07/29 10:26:58;;;;;;;;;;;871.20;1203.20;;;;;;5110491;28;19907;-54
2022/07/29 10:29:24;;;;;;;;;;;896.10;1177.60;;;;;;5110314;28;20372;-55
2022/07/29 10:31:50;;;;;;;;;;;871.30;1203.20;;;;;;5110143;28;19907;-56
2022/07/29 10:34:23;;;;;;;;;;;870.90;1228.80;;;;;;5110227;28;19911;-55
2022/07/29 10:36:54;;;;;;;;;;;870.80;1203.20;;;;;;5109830;28;19908;-56
2022/07/29 10:39:38;;;;;;;;;;;870.50;1228.80;;;;;;5109601;28;19953;-59
2022/07/29 10:42:10;;;;;;;;;;;845.70;1254.40;;;;;;5109966;28;19916;-57
2022/07/29 10:44:39;;;;;;;;;;;845.70;1254.40;;;;;;5109979;28;19974;-56
2022/07/29 10:47:04;;;;;;;;;;;870.50;1254.40;;;;;;5109876;28;19943;-57
2022/07/29 10:49:30;;;;;;;;;;;870.50;1228.80;;;;;;5109766;28;19951;-55
2022/07/29 10:51:57;;;;;;;;;;;870.50;1254.40;;;;;;5109463;28;19952;-57
2022/07/29 10:54:35;;;;;;;;;;;870.70;1254.40;;;;;;5109680;28;19908;-57
2022/07/29 10:57:31;;;;;;;;;;;870.80;1228.80;;;;;;5109630;28;19916;-57
2022/07/29 11:00:10;;;;;;;;;;;871.10;1254.40;;;;;;5109621;28;19931;-55
2022/07/29 11:02:35;;;;;;;;;;;870.60;1228.80;;;;;;5109928;28;20285;-55
2022/07/29 11:05:05;;;;;;;;;;;870.90;1254.40;;;;;;5108919;28;19915;-57
2022/07/29 11:07:33;;;;;;;;;;;870.90;1228.80;;;;;;5109322;28;19922;-56
2022/07/29 11:10:11;;;;;;;;;;;870.80;1228.80;;;;;;5109413;28;20061;-57
2022/07/29 11:12:37;;;;;;;;;;;870.90;1228.80;;;;;;5109306;28;20285;-58
2022/07/29 11:15:04;;;;;;;;;;;871.10;1254.40;;;;;;5109263;28;19908;-55
2022/07/29 11:17:50;;;;;;;;;;;871.20;1228.80;;;;;;5108935;28;19914;-56
2022/07/29 11:20:34;;;;;;;;;;;871.30;1203.20;;;;;;5109374;28;19926;-54
2022/07/29 11:23:00;;;;;;;;;;;871.30;1228.80;;;;;;5109242;28;19960;-55
2022/07/29 11:25:26;;;;;;;;;;;896.00;1228.80;;;;;;5109299;28;19920;-58
2022/07/29 11:27:53;;;;;;;;;;;896.00;1203.20;;;;;;5109153;28;19918;-55
2022/07/29 11:30:18;;;;;;;;;;;896.00;1203.20;;;;;;5108833;28;19919;-56
2022/07/29 11:32:44;;;;;;;;;;;871.30;1203.20;;;;;;5109049;28;19908;-54
2022/07/29 11:35:21;;;;;;;;;;;871.00;1228.80;;;;;;5109185;28;19995;-55
2022/07/29 11:38:06;;;;;;;;;;;870.60;1228.80;;;;;;5109095;28;19916;-56
2022/07/29 11:40:32;;;;;;;;;;;870.60;1254.40;;;;;;5108732;28;19915;-55
2022/07/29 11:42:58;;;;;;;;;;;870.70;1254.40;;;;;;5108719;28;19916;-55
2022/07/29 11:45:27;;;;;;;;;;;870.70;1254.40;;;;;;5109242;28;20292;-56
2022/07/29 11:47:57;;;;;;;;;;;870.70;1254.40;;;;;;5109155;28;19914;-55
2022/07/29 11:50:30;;;;;;;;;;;870.80;1280.00;;;;;;5109092;28;19912;-55
2022/07/29 11:52:56;;;;;;;;;;;871.10;1228.80;;;;;;5109125;28;19947;-56
2022/07/29 11:55:22;;;;;;;;;;;871.10;1228.80;;;;;;5108981;28;20392;-57
2022/07/29 11:57:55;;;;;;;;;;;870.90;1228.80;;;;;;5108256;28;19955;-55
2022/07/29 12:00:23;;;;;;;;;;;870.80;1228.80;;;;;;5108697;28;19922;-59
2022/07/29 12:02:48;;;;;;;;;;;870.60;1228.80;;;;;;5108741;28;19915;-55
2022/07/29 12:05:15;;;;;;;;;;;870.50;1254.40;;;;;;5108811;28;19923;-55
2022/07/29 12:07:41;;;;;;;;;;;870.50;1228.80;;;;;;5108971;28;19919;-56
2022/07/29 12:10:06;;;;;;;;;;;870.60;1228.80;;;;;;5108203;28;19912;-56
2022/07/29 12:12:33;;;;;;;;;;;870.90;1228.80;;;;;;5110825;28;19912;-57
2022/07/29 12:15:10;;;;;;;;;;;871.10;1254.40;;;;;;5113589;28;20388;-58
2022/07/29 12:17:35;;;;;;;;;;;871.20;1254.40;;;;;;5114941;28;20420;-55
2022/07/29 12:20:02;;;;;;;;;;;896.00;1228.80;;;;;;5115046;28;19912;-55
2022/07/29 12:22:31;;;;;;;;;;;896.00;1228.80;;;;;;5114564;28;20349;-55
2022/07/29 12:25:00;;;;;;;;;;;896.30;1228.80;;;;;;5114907;28;20377;-56
2022/07/29 12:27:26;;;;;;;;;;;896.40;1203.20;;;;;;5114830;28;19954;-55
2022/07/29 12:29:56;;;;;;;;;;;896.30;1177.60;;;;;;5114536;28;19947;-55
2022/07/29 12:32:22;;;;;;;;;;;896.40;1228.80;;;;;;5114316;28;20258;-55
2022/07/29 12:34:47;;;;;;;;;;;896.10;1203.20;;;;;;5114418;28;19929;-56
2022/07/29 12:37:13;;;;;;;;;;;871.30;1203.20;;;;;;5114791;28;19908;-55
2022/07/29 12:39:39;;;;;;;;;;;871.30;1228.80;;;;;;5114437;28;20281;-55
2022/07/29 12:42:14;;;;;;;;;;;896.00;1228.80;;;;;;5114396;28;20276;-55
2022/07/29 12:44:49;;;;;;;;;;;896.30;1203.20;;;;;;5113957;28;20266;-58
2022/07/29 12:47:16;;;;;;;;;;;871.30;1177.60;;;;;;5114289;28;19915;-55
2022/07/29 12:49:41;;;;;;;;;;;871.30;1203.20;;;;;;5114110;28;19961;-55
2022/07/29 12:52:25;;;;;;;;;;;871.10;1203.20;;;;;;5114221;28;19912;-55
2022/07/29 12:54:51;;;;;;;;;;;871.10;1203.20;;;;;;5113811;28;19937;-55
2022/07/29 12:57:17;;;;;;;;;;;871.00;1203.20;;;;;;5114070;28;20039;-55
2022/07/29 12:59:42;;;;;;;;;;;871.10;1228.80;;;;;;5114036;28;19914;-54
2022/07/29 13:02:20;;;;;;;;;;;871.10;1203.20;;;;;;5113666;28;19924;-55
2022/07/29 13:04:54;;;;;;;;;;;871.20;1203.20;;;;;;5113983;28;20014;-55
2022/07/29 13:07:23;;;;;;;;;;;871.30;1203.20;;;;;;5113751;28;19907;-55
2022/07/29 13:09:49;;;;;;;;;;;896.00;1177.60;;;;;;5113740;28;19930;-55
2022/07/29 13:12:14;;;;;;;;;;;871.10;1203.20;;;;;;5113600;28;20269;-55
2022/07/29 13:14:41;;;;;;;;;;;871.30;1203.20;;;;;;5113793;28;19966;-55
2022/07/29 13:17:08;;;;;;;;;;;896.10;1203.20;;;;;;5113784;28;19953;-58
2022/07/29 13:19:34;;;;;;;;;;;896.00;1203.20;;;;;;5113758;28;19915;-55
2022/07/29 13:21:59;;;;;;;;;;;896.10;1203.20;;;;;;5113484;28;19908;-55
2022/07/29 13:24:25;;;;;;;;;;;896.30;1203.20;;;;;;5113299;28;19920;-56
2022/07/29 13:26:51;;;;;;;;;;;896.30;1203.20;;;;;;5112431;28;19919;-56
2022/07/29 13:29:17;;;;;;;;;;;896.50;1203.20;;;;;;5113412;28;19908;-56
2022/07/29 13:31:43;;;;;;;;;;;896.50;1203.20;;;;;;5113349;28;19953;-55
2022/07/29 13:34:08;;;;;;;;;;;896.50;1203.20;;;;;;5113281;28;19976;-56
2022/07/29 13:36:34;;;;;;;;;;;896.50;1177.60;;;;;;5113381;28;20314;-58
2022/07/29 13:39:02;;;;;;;;;;;896.60;1203.20;;;;;;5112792;28;20365;-55
2022/07/29 13:41:27;;;;;;;;;;;896.50;1177.60;;;;;;5113011;28;19912;-56